Time;durP1;ratioP1;P1;durP2;ratioP2;P2;SDS_P1;SDS_P2;PMS_P1;PMS_P2;Temp;Humidity;BMP_temperature;BMP_pressure;BME280_temperature;BME280_humidity;BME280_pressure;Samples;Min_cycle;Max_cycle;Signal;HPM_P1;HPM_P2
2021/06/15 00:00:10;;;;;;;12.53;10.17;;;;;;;;;;5073370;28;20512;-59
2021/06/15 00:02:38;;;;;;;12.20;9.20;;;;;;;;;;5072944;28;20459;-59
2021/06/15 00:05:06;;;;;;;14.17;10.80;;;;;;;;;;5073252;28;20500;-59
2021/06/15 00:07:33;;;;;;;13.00;8.90;;;;;;;;;;5073621;28;20447;-58
2021/06/15 00:10:00;;;;;;;11.10;9.53;;;;;;;;;;5073938;28;20448;-58
2021/06/15 00:12:29;;;;;;;12.47;10.13;;;;;;;;;;5074642;28;20981;-59
2021/06/15 00:14:56;;;;;;;11.73;9.73;;;;;;;;;;5074176;28;20442;-59
2021/06/15 00:17:23;;;;;;;11.43;10.23;;;;;;;;;;5073805;28;20447;-58
2021/06/15 00:19:51;;;;;;;12.00;10.63;;;;;;;;;;5073185;28;20450;-59
2021/06/15 00:22:18;;;;;;;11.90;10.23;;;;;;;;;;5072818;28;20467;-59
2021/06/15 00:24:45;;;;;;;20.03;10.40;;;;;;;;;;5076701;28;20439;-59
2021/06/15 00:27:12;;;;;;;16.70;11.40;;;;;;;;;;5077237;28;20447;-60
2021/06/15 00:29:41;;;;;;;11.73;10.53;;;;;;;;;;5077266;28;20443;-59
2021/06/15 00:32:08;;;;;;;12.20;10.53;;;;;;;;;;5076722;28;20611;-59
2021/06/15 00:34:35;;;;;;;15.37;11.63;;;;;;;;;;5076834;28;20496;-59
2021/06/15 00:37:03;;;;;;;14.90;10.30;;;;;;;;;;5077072;28;20443;-60
2021/06/15 00:39:30;;;;;;;12.87;11.60;;;;;;;;;;5076752;28;20852;-59
2021/06/15 00:41:57;;;;;;;12.00;10.00;;;;;;;;;;5076717;28;20505;-59
2021/06/15 00:44:25;;;;;;;17.43;10.77;;;;;;;;;;5077020;28;20496;-59
2021/06/15 00:46:54;;;;;;;11.73;10.53;;;;;;;;;;5077251;28;20447;-59
2021/06/15 00:49:26;;;;;;;11.50;9.80;;;;;;;;;;5076912;28;20942;-59
2021/06/15 00:51:55;;;;;;;11.10;9.80;;;;;;;;;;5076569;28;20978;-59
2021/06/15 00:54:23;;;;;;;11.80;10.63;;;;;;;;;;5076720;28;20479;-59
2021/06/15 00:56:50;;;;;;;13.80;11.23;;;;;;;;;;5076420;28;20808;-59
2021/06/15 00:59:17;;;;;;;12.43;11.10;;;;;;;;;;5076752;28;20517;-59
2021/06/15 01:01:44;;;;;;;12.50;10.50;;;;;;;;;;5076398;28;20985;-59
2021/06/15 01:04:14;;;;;;;19.27;12.30;;;;;;;;;;5076988;28;20493;-59
2021/06/15 01:06:45;;;;;;;14.20;12.70;;;;;;;;;;5076487;28;20938;-59
2021/06/15 01:09:16;;;;;;;15.60;12.80;;;;;;;;;;5076679;28;20493;-59
2021/06/15 01:11:51;;;;;;;16.27;12.80;;;;;;;;;;5076091;28;20463;-59
2021/06/15 01:14:25;;;;;;;15.20;12.20;;;;;;;;;;5076174;28;20963;-59
2021/06/15 01:16:55;;;;;;;15.50;12.80;;;;;;;;;;5076563;28;20430;-59
2021/06/15 01:19:33;;;;;;;14.27;12.50;;;;;;;;;;5076472;28;20534;-59
2021/06/15 01:22:07;;;;;;;16.53;12.20;;;;;;;;;;5076593;28;20576;-59
2021/06/15 01:24:37;;;;;;;15.27;13.10;;;;;;;;;;5076061;28;20470;-58
2021/06/15 01:27:13;;;;;;;14.00;12.60;;;;;;;;;;5076436;28;20439;-59
2021/06/15 01:29:44;;;;;;;14.50;13.00;;;;;;;;;;5076365;28;20480;-59
2021/06/15 01:32:14;;;;;;;14.57;13.00;;;;;;;;;;5075940;28;20525;-59
2021/06/15 01:34:42;;;;;;;15.17;13.30;;;;;;;;;;5075440;28;20540;-59
2021/06/15 01:37:11;;;;;;;14.33;12.77;;;;;;;;;;5076044;28;20443;-59
2021/06/15 01:39:40;;;;;;;15.03;13.20;;;;;;;;;;5075948;28;20573;-59
2021/06/15 01:42:12;;;;;;;18.80;14.43;;;;;;;;;;5075564;28;20517;-59
2021/06/15 01:44:40;;;;;;;14.90;13.33;;;;;;;;;;5075580;28;20431;-59
2021/06/15 01:47:11;;;;;;;14.00;12.70;;;;;;;;;;5075748;28;20872;-59
2021/06/15 01:49:43;;;;;;;16.63;12.67;;;;;;;;;;5075766;28;20518;-59
2021/06/15 01:52:11;;;;;;;17.63;13.10;;;;;;;;;;5075599;28;20486;-60
2021/06/15 01:54:40;;;;;;;19.40;13.33;;;;;;;;;;5075568;28;20505;-59
2021/06/15 01:57:08;;;;;;;16.20;13.63;;;;;;;;;;5075575;28;20444;-59
2021/06/15 01:59:37;;;;;;;15.63;13.70;;;;;;;;;;5075565;28;20458;-59
2021/06/15 02:02:05;;;;;;;17.40;13.73;;;;;;;;;;5075145;28;20467;-59
2021/06/15 02:04:35;;;;;;;14.50;13.00;;;;;;;;;;5077090;28;20500;-59
2021/06/15 02:07:02;;;;;;;15.27;13.10;;;;;;;;;;5081726;28;20504;-59
2021/06/15 02:09:32;;;;;;;17.70;14.37;;;;;;;;;;5081528;28;20443;-59
2021/06/15 02:11:59;;;;;;;19.50;14.20;;;;;;;;;;5081420;28;20851;-60
2021/06/15 02:14:28;;;;;;;16.40;14.70;;;;;;;;;;5081113;28;20479;-60
2021/06/15 02:16:57;;;;;;;16.43;14.73;;;;;;;;;;5082429;28;20447;-60
2021/06/15 02:19:25;;;;;;;19.63;15.33;;;;;;;;;;5085282;28;20473;-59
2021/06/15 02:21:55;;;;;;;19.90;15.27;;;;;;;;;;5083369;28;20466;-59
2021/06/15 02:24:24;;;;;;;17.53;14.30;;;;;;;;;;5084742;28;20431;-59
2021/06/15 02:26:52;;;;;;;16.50;14.10;;;;;;;;;;5081862;28;20465;-59
2021/06/15 02:29:19;;;;;;;15.87;14.03;;;;;;;;;;5082754;28;20443;-59
2021/06/15 02:31:48;;;;;;;23.07;16.37;;;;;;;;;;5079130;28;20498;-59
2021/06/15 02:34:17;;;;;;;17.13;15.33;;;;;;;;;;5078643;28;20889;-58
2021/06/15 02:36:46;;;;;;;19.87;17.60;;;;;;;;;;5077508;28;20871;-59
2021/06/15 02:39:17;;;;;;;19.00;16.47;;;;;;;;;;5076127;28;20804;-59
2021/06/15 02:41:45;;;;;;;18.83;17.03;;;;;;;;;;5076395;28;20467;-59
2021/06/15 02:44:16;;;;;;;23.20;18.57;;;;;;;;;;5077882;28;20500;-59
2021/06/15 02:46:43;;;;;;;22.23;18.83;;;;;;;;;;5075977;28;20493;-59
2021/06/15 02:49:13;;;;;;;21.70;19.20;;;;;;;;;;5078124;28;20834;-59
2021/06/15 02:51:42;;;;;;;23.10;19.80;;;;;;;;;;5079032;28;20489;-59
2021/06/15 02:54:11;;;;;;;28.67;21.07;;;;;;;;;;5077072;28;20479;-59
2021/06/15 02:56:41;;;;;;;24.00;20.40;;;;;;;;;;5076281;28;20450;-59
2021/06/15 02:59:08;;;;;;;24.33;21.67;;;;;;;;;;5076077;28;20443;-59
2021/06/15 03:01:35;;;;;;;25.40;19.57;;;;;;;;;;5079196;28;21005;-59
2021/06/15 03:04:03;;;;;;;23.70;20.57;;;;;;;;;;5076421;28;20444;-59
2021/06/15 03:06:30;;;;;;;28.20;22.70;;;;;;;;;;5075155;28;20465;-59
2021/06/15 03:08:59;;;;;;;23.27;20.77;;;;;;;;;;5075462;28;20443;-59
2021/06/15 03:11:28;;;;;;;31.30;23.23;;;;;;;;;;5076559;28;20794;-59
2021/06/15 03:14:03;;;;;;;24.57;21.97;;;;;;;;;;5074929;28;20483;-59
2021/06/15 03:16:31;;;;;;;32.17;23.10;;;;;;;;;;5074147;28;20605;-59
2021/06/15 03:19:02;;;;;;;29.37;22.83;;;;;;;;;;5074301;28;20501;-59
2021/06/15 03:21:33;;;;;;;29.93;23.23;;;;;;;;;;5074108;28;20525;-59
2021/06/15 03:24:03;;;;;;;28.27;23.63;;;;;;;;;;5073974;28;20953;-59
2021/06/15 03:26:40;;;;;;;25.70;21.43;;;;;;;;;;5074346;28;20446;-59
2021/06/15 03:29:10;;;;;;;26.57;22.40;;;;;;;;;;5074147;28;20426;-59
2021/06/15 03:31:40;;;;;;;25.40;21.20;;;;;;;;;;5074014;28;20471;-59
2021/06/15 03:34:10;;;;;;;26.40;23.60;;;;;;;;;;5073820;28;20890;-59
2021/06/15 03:36:37;;;;;;;30.67;24.67;;;;;;;;;;5074747;28;20479;-60
2021/06/15 03:39:06;;;;;;;25.10;22.30;;;;;;;;;;5073879;28;20452;-59
2021/06/15 03:41:35;;;;;;;26.40;23.50;;;;;;;;;;5074187;28;20534;-59
2021/06/15 03:44:03;;;;;;;31.90;25.30;;;;;;;;;;5074292;28;20451;-59
2021/06/15 03:46:34;;;;;;;30.50;24.83;;;;;;;;;;5073685;28;20843;-59
2021/06/15 03:49:03;;;;;;;29.40;23.93;;;;;;;;;;5073900;28;20436;-61
2021/06/15 03:51:31;;;;;;;29.87;25.43;;;;;;;;;;5074005;28;20458;-59
2021/06/15 03:54:07;;;;;;;27.60;22.77;;;;;;;;;;5073867;28;20532;-59
2021/06/15 03:56:35;;;;;;;28.70;23.60;;;;;;;;;;5073710;28;20484;-60
2021/06/15 03:59:03;;;;;;;26.40;23.60;;;;;;;;;;5073108;28;21046;-60
2021/06/15 04:01:30;;;;;;;26.77;23.87;;;;;;;;;;5073489;28;20974;-60
2021/06/15 04:04:01;;;;;;;32.93;23.40;;;;;;;;;;5073789;28;20853;-59
2021/06/15 04:08:14;;;;;;;26.80;21.23;;;;;;;;;;5176569;27;20519;-59
2021/06/15 04:10:43;;;;;;;24.70;21.03;;;;;;;;;;5152484;27;20424;-59
2021/06/15 04:13:10;;;;;;;26.63;22.10;;;;;;;;;;5135054;28;20494;-59
2021/06/15 04:15:38;;;;;;;27.30;22.07;;;;;;;;;;5135131;28;20437;-59
2021/06/15 04:18:07;;;;;;;23.20;19.73;;;;;;;;;;5134396;28;20437;-59
2021/06/15 04:20:36;;;;;;;25.63;22.27;;;;;;;;;;5134369;27;20497;-59
2021/06/15 04:23:05;;;;;;;29.90;21.57;;;;;;;;;;5133160;28;20437;-59
2021/06/15 04:25:37;;;;;;;28.53;22.43;;;;;;;;;;5132896;28;20478;-59
2021/06/15 04:28:05;;;;;;;28.77;22.60;;;;;;;;;;5132478;28;20475;-59
2021/06/15 04:30:34;;;;;;;28.80;21.77;;;;;;;;;;5132435;27;20494;-58
2021/06/15 04:33:03;;;;;;;27.90;21.60;;;;;;;;;;5155135;22;20488;-55
2021/06/15 04:35:32;;;;;;;29.27;23.50;;;;;;;;;;5110729;28;20445;-55
2021/06/15 04:38:02;;;;;;;25.80;20.70;;;;;;;;;;5110440;28;20483;-54
2021/06/15 04:40:30;;;;;;;29.83;20.47;;;;;;;;;;5110358;28;20429;-55
2021/06/15 04:43:10;;;;;;;24.50;21.30;;;;;;;;;;5110716;28;20515;-54
2021/06/15 04:45:41;;;;;;;24.67;20.20;;;;;;;;;;5110901;28;20422;-55
2021/06/15 04:48:09;;;;;;;23.80;20.10;;;;;;;;;;5110473;28;20501;-55
2021/06/15 04:50:36;;;;;;;24.30;19.73;;;;;;;;;;5110329;28;20441;-54
2021/06/15 04:53:05;;;;;;;24.03;19.50;;;;;;;;;;5110282;28;20469;-55
2021/06/15 04:55:35;;;;;;;22.17;18.07;;;;;;;;;;5110068;28;20557;-55
2021/06/15 04:58:05;;;;;;;21.83;18.30;;;;;;;;;;5110225;28;20445;-54
2021/06/15 05:00:32;;;;;;;24.30;19.27;;;;;;;;;;5110087;28;20449;-55
2021/06/15 05:03:00;;;;;;;21.07;17.97;;;;;;;;;;5109754;28;20466;-55
2021/06/15 05:05:28;;;;;;;20.83;18.00;;;;;;;;;;5109777;28;20885;-54
2021/06/15 05:07:56;;;;;;;21.73;18.60;;;;;;;;;;5109901;28;20585;-54
2021/06/15 05:10:25;;;;;;;19.60;17.40;;;;;;;;;;5109989;28;20528;-54
2021/06/15 05:12:53;;;;;;;20.27;17.27;;;;;;;;;;5110329;28;20511;-54
2021/06/15 05:15:23;;;;;;;19.53;17.10;;;;;;;;;;5109752;28;20992;-55
2021/06/15 05:17:51;;;;;;;20.50;15.23;;;;;;;;;;5105800;28;20442;-54
2021/06/15 05:20:19;;;;;;;20.50;16.90;;;;;;;;;;5095984;28;20499;-55
2021/06/15 05:22:48;;;;;;;20.40;16.93;;;;;;;;;;5096368;28;20477;-53
2021/06/15 05:25:17;;;;;;;19.70;15.10;;;;;;;;;;5096148;28;20503;-53
2021/06/15 05:27:44;;;;;;;17.60;14.87;;;;;;;;;;5095993;28;20477;-53
2021/06/15 05:30:12;;;;;;;20.00;15.87;;;;;;;;;;5096757;28;20447;-54
2021/06/15 05:32:41;;;;;;;17.77;15.93;;;;;;;;;;5095885;28;20478;-54
2021/06/15 05:35:08;;;;;;;21.83;17.07;;;;;;;;;;5095586;28;20511;-54
2021/06/15 05:37:36;;;;;;;16.93;14.97;;;;;;;;;;5096518;28;20503;-54
2021/06/15 05:40:04;;;;;;;19.23;15.83;;;;;;;;;;5097177;28;20438;-53
2021/06/15 05:42:31;;;;;;;20.00;16.00;;;;;;;;;;5095763;28;20970;-54
2021/06/15 05:44:58;;;;;;;19.67;16.10;;;;;;;;;;5095413;28;20492;-54
2021/06/15 05:47:26;;;;;;;17.97;16.03;;;;;;;;;;5095379;28;20474;-54
2021/06/15 05:49:55;;;;;;;20.07;16.23;;;;;;;;;;5096557;28;20507;-56
2021/06/15 05:52:22;;;;;;;19.80;17.00;;;;;;;;;;5095616;28;20535;-56
2021/06/15 05:54:49;;;;;;;18.33;15.67;;;;;;;;;;5095338;28;20922;-56
2021/06/15 05:57:17;;;;;;;19.60;17.50;;;;;;;;;;5095070;28;20488;-56
2021/06/15 05:59:45;;;;;;;19.00;16.97;;;;;;;;;;5095447;28;20466;-56
2021/06/15 06:02:12;;;;;;;28.53;19.33;;;;;;;;;;5095264;28;20473;-54
2021/06/15 06:04:50;;;;;;;19.70;17.60;;;;;;;;;;5095206;28;20512;-56
2021/06/15 06:10:04;;;;;;;26.17;18.50;;;;;;;;;;5094954;28;20398;-56
2021/06/15 06:12:31;;;;;;;19.00;15.77;;;;;;;;;;5094896;28;20841;-56
2021/06/15 06:14:58;;;;;;;21.87;18.47;;;;;;;;;;5094729;28;20930;-55
2021/06/15 06:17:25;;;;;;;24.53;17.50;;;;;;;;;;5095225;28;20515;-55
2021/06/15 06:19:53;;;;;;;19.77;17.47;;;;;;;;;;5094525;28;20926;-55
2021/06/15 06:22:22;;;;;;;17.53;15.57;;;;;;;;;;5094519;28;20507;-56
2021/06/15 06:24:50;;;;;;;27.03;16.47;;;;;;;;;;5094503;28;20458;-55
2021/06/15 06:27:18;;;;;;;15.77;14.07;;;;;;;;;;5094666;28;20478;-54
2021/06/15 06:29:45;;;;;;;18.13;14.70;;;;;;;;;;5093598;28;20512;-55
2021/06/15 06:32:12;;;;;;;21.53;16.23;;;;;;;;;;5094180;28;20525;-55
2021/06/15 06:34:39;;;;;;;18.53;14.80;;;;;;;;;;5094623;28;20438;-55
2021/06/15 06:37:07;;;;;;;16.90;14.60;;;;;;;;;;5094387;28;20443;-55
2021/06/15 06:39:35;;;;;;;17.83;14.03;;;;;;;;;;5094274;28;20438;-56
2021/06/15 06:42:03;;;;;;;17.10;12.20;;;;;;;;;;5094198;28;20465;-57
2021/06/15 06:44:30;;;;;;;15.50;11.77;;;;;;;;;;5094216;28;21006;-56
2021/06/15 06:46:57;;;;;;;15.20;12.70;;;;;;;;;;5094390;28;20478;-56
2021/06/15 06:49:24;;;;;;;12.60;11.30;;;;;;;;;;5094446;28;20861;-56
2021/06/15 06:51:51;;;;;;;15.37;11.77;;;;;;;;;;5093923;28;20450;-56
2021/06/15 06:54:19;;;;;;;18.37;12.87;;;;;;;;;;5093997;28;20497;-56
2021/06/15 06:56:47;;;;;;;17.30;11.23;;;;;;;;;;5094158;28;20434;-56
2021/06/15 06:59:14;;;;;;;13.70;11.60;;;;;;;;;;5094164;28;20495;-56
2021/06/15 07:01:42;;;;;;;16.40;10.37;;;;;;;;;;5093576;28;20500;-57
2021/06/15 07:04:09;;;;;;;13.70;11.10;;;;;;;;;;5094007;28;20438;-57
2021/06/15 07:06:36;;;;;;;13.90;9.17;;;;;;;;;;5093485;28;21000;-55
2021/06/15 07:09:03;;;;;;;13.60;9.60;;;;;;;;;;5093759;28;20482;-56
2021/06/15 07:11:30;;;;;;;13.93;9.07;;;;;;;;;;5094221;28;20454;-55
2021/06/15 07:13:59;;;;;;;13.80;9.53;;;;;;;;;;5093952;28;20873;-56
2021/06/15 07:16:26;;;;;;;10.90;9.37;;;;;;;;;;5093910;28;20523;-55
2021/06/15 07:18:54;;;;;;;12.97;9.03;;;;;;;;;;5094254;28;20438;-56
2021/06/15 07:21:21;;;;;;;13.90;9.77;;;;;;;;;;5093720;28;20511;-55
2021/06/15 07:23:48;;;;;;;9.83;8.27;;;;;;;;;;5093672;28;20488;-55
2021/06/15 07:26:15;;;;;;;10.63;9.03;;;;;;;;;;5093470;28;20450;-57
2021/06/15 07:28:43;;;;;;;12.83;9.20;;;;;;;;;;5093720;28;20968;-56
2021/06/15 07:31:11;;;;;;;10.87;9.40;;;;;;;;;;5093267;28;20476;-56
2021/06/15 07:33:39;;;;;;;14.53;9.43;;;;;;;;;;5092994;28;20486;-56
2021/06/15 07:36:07;;;;;;;12.20;8.60;;;;;;;;;;5093084;28;20495;-56
2021/06/15 07:38:34;;;;;;;11.30;9.50;;;;;;;;;;5093193;28;20902;-56
2021/06/15 07:41:02;;;;;;;10.20;8.60;;;;;;;;;;5092959;28;20450;-58
2021/06/15 07:43:29;;;;;;;11.23;8.60;;;;;;;;;;5093312;28;20516;-56
2021/06/15 07:45:57;;;;;;;12.40;8.63;;;;;;;;;;5093495;28;20795;-55
2021/06/15 07:48:25;;;;;;;15.57;8.90;;;;;;;;;;5092962;28;20478;-56
2021/06/15 07:50:53;;;;;;;13.43;9.37;;;;;;;;;;5093297;28;20500;-55
2021/06/15 07:53:22;;;;;;;12.10;9.50;;;;;;;;;;5092964;28;20973;-56
2021/06/15 07:55:49;;;;;;;10.47;9.20;;;;;;;;;;5092868;28;20930;-56
2021/06/15 07:58:16;;;;;;;11.00;8.23;;;;;;;;;;5092752;28;20442;-56
2021/06/15 08:00:43;;;;;;;12.10;7.80;;;;;;;;;;5092800;28;20937;-59
2021/06/15 08:03:11;;;;;;;10.87;8.33;;;;;;;;;;5092966;28;20466;-57
2021/06/15 08:05:39;;;;;;;8.90;7.13;;;;;;;;;;5092746;28;20479;-58
2021/06/15 08:08:07;;;;;;;15.17;7.20;;;;;;;;;;5092780;28;21077;-59
2021/06/15 08:10:34;;;;;;;12.83;7.60;;;;;;;;;;5092998;28;20453;-58
2021/06/15 08:13:01;;;;;;;9.07;6.90;;;;;;;;;;5093124;28;20465;-57
2021/06/15 08:15:29;;;;;;;11.30;7.20;;;;;;;;;;5092987;28;20478;-58
2021/06/15 08:17:56;;;;;;;10.73;6.47;;;;;;;;;;5093093;28;20443;-58
2021/06/15 08:20:23;;;;;;;8.27;6.73;;;;;;;;;;5092950;28;20449;-58
2021/06/15 08:22:52;;;;;;;7.83;5.50;;;;;;;;;;5092996;28;20535;-56
2021/06/15 08:25:20;;;;;;;10.27;5.43;;;;;;;;;;5092884;28;20507;-55
2021/06/15 08:27:47;;;;;;;7.17;5.03;;;;;;;;;;5092729;28;20599;-56
2021/06/15 08:30:15;;;;;;;7.50;5.40;;;;;;;;;;5092919;28;20446;-59
2021/06/15 08:32:42;;;;;;;10.03;5.73;;;;;;;;;;5093262;28;20497;-56
2021/06/15 08:35:10;;;;;;;9.17;6.27;;;;;;;;;;5092402;28;20454;-57
2021/06/15 08:37:38;;;;;;;5.60;5.00;;;;;;;;;;5092678;28;20529;-58
2021/06/15 08:40:07;;;;;;;6.73;4.87;;;;;;;;;;5092771;28;20450;-56
2021/06/15 08:42:37;;;;;;;5.97;4.10;;;;;;;;;;5092775;28;20547;-57
2021/06/15 08:45:04;;;;;;;9.67;4.60;;;;;;;;;;5092472;28;20988;-58
2021/06/15 08:47:32;;;;;;;7.87;4.13;;;;;;;;;;5092333;28;20990;-56
2021/06/15 08:49:59;;;;;;;10.10;5.00;;;;;;;;;;5092670;28;20867;-56
2021/06/15 08:52:27;;;;;;;6.93;4.27;;;;;;;;;;5092795;28;20468;-54
2021/06/15 08:54:55;;;;;;;5.90;3.77;;;;;;;;;;5095859;28;20521;-57
2021/06/15 08:57:24;;;;;;;5.83;3.60;;;;;;;;;;5096625;28;20441;-55
2021/06/15 08:59:52;;;;;;;7.30;3.77;;;;;;;;;;5096493;28;20442;-57
2021/06/15 09:02:19;;;;;;;8.23;4.03;;;;;;;;;;5096204;28;20469;-57
2021/06/15 09:04:46;;;;;;;6.90;3.83;;;;;;;;;;5096386;28;20497;-55
2021/06/15 09:07:14;;;;;;;4.47;3.73;;;;;;;;;;5096137;28;20449;-56
2021/06/15 09:09:42;;;;;;;7.57;4.40;;;;;;;;;;5095698;28;20529;-56
2021/06/15 09:12:10;;;;;;;8.17;4.90;;;;;;;;;;5096202;28;20527;-56
2021/06/15 09:14:43;;;;;;;8.60;4.83;;;;;;;;;;5096280;28;20497;-58
2021/06/15 09:17:11;;;;;;;9.40;4.83;;;;;;;;;;5096293;28;20453;-57
2021/06/15 09:19:39;;;;;;;7.80;4.60;;;;;;;;;;5096051;28;20532;-57
2021/06/15 09:22:07;;;;;;;7.10;4.00;;;;;;;;;;5095833;28;20473;-56
2021/06/15 09:24:45;;;;;;;5.83;3.97;;;;;;;;;;5095562;28;20932;-58
2021/06/15 09:27:12;;;;;;;7.10;3.30;;;;;;;;;;5095660;28;20540;-57
2021/06/15 09:29:48;;;;;;;7.90;3.83;;;;;;;;;;5095427;28;20480;-56
2021/06/15 09:32:17;;;;;;;7.93;3.20;;;;;;;;;;5095603;28;20534;-56
2021/06/15 09:34:52;;;;;;;5.07;3.03;;;;;;;;;;5096101;28;20436;-55
2021/06/15 09:37:27;;;;;;;12.10;3.80;;;;;;;;;;5095555;28;20474;-56
2021/06/15 09:39:54;;;;;;;7.30;3.20;;;;;;;;;;5095963;28;20512;-57
2021/06/15 09:42:22;;;;;;;4.63;2.80;;;;;;;;;;5095613;28;20469;-55
2021/06/15 09:44:50;;;;;;;7.73;3.90;;;;;;;;;;5095296;28;20445;-56
2021/06/15 09:47:22;;;;;;;5.67;3.10;;;;;;;;;;5095500;28;20445;-56
2021/06/15 09:49:49;;;;;;;6.50;3.50;;;;;;;;;;5095197;28;20518;-56
2021/06/15 09:52:17;;;;;;;6.17;3.57;;;;;;;;;;5095398;28;20515;-56
2021/06/15 09:54:46;;;;;;;7.32;3.20;;;;;;;;;;5094881;28;20904;-58
2021/06/15 09:57:19;;;;;;;7.43;3.40;;;;;;;;;;5095446;28;20211;-56
2021/06/15 10:00:00;;;;;;;7.97;3.27;;;;;;;;;;5094982;28;20455;-55
2021/06/15 10:02:27;;;;;;;5.80;2.90;;;;;;;;;;5095315;28;20549;-56
2021/06/15 10:04:54;;;;;;;5.70;3.63;;;;;;;;;;5095255;28;20808;-56
2021/06/15 10:07:28;;;;;;;7.00;2.80;;;;;;;;;;5095151;28;20494;-57
2021/06/15 10:09:57;;;;;;;4.20;3.07;;;;;;;;;;5095254;28;20477;-57
2021/06/15 10:12:25;;;;;;;8.23;3.07;;;;;;;;;;5094896;28;20465;-57
2021/06/15 10:14:55;;;;;;;4.33;2.93;;;;;;;;;;5094564;28;20455;-57
2021/06/15 10:17:25;;;;;;;10.43;3.50;;;;;;;;;;5094550;28;20455;-56
2021/06/15 10:19:52;;;;;;;7.23;3.00;;;;;;;;;;5095338;28;20528;-56
2021/06/15 10:22:21;;;;;;;3.23;2.07;;;;;;;;;;5094712;28;20973;-57
2021/06/15 10:24:50;;;;;;;3.17;1.83;;;;;;;;;;5094367;28;20941;-57
2021/06/15 10:27:17;;;;;;;7.90;2.60;;;;;;;;;;5095195;28;20527;-57
2021/06/15 10:29:50;;;;;;;5.30;2.13;;;;;;;;;;5094703;28;20481;-56
2021/06/15 10:32:18;;;;;;;5.40;2.60;;;;;;;;;;5094388;28;20485;-56
2021/06/15 10:34:58;;;;;;;8.03;2.80;;;;;;;;;;5129489;22;20433;-60
2021/06/15 10:37:48;;;;;;;6.27;2.70;;;;;;;;;;5072958;28;20460;-60
2021/06/15 10:40:33;;;;;;;4.13;2.33;;;;;;;;;;5074687;28;20437;-59
2021/06/15 10:43:12;;;;;;;9.83;3.40;;;;;;;;;;5074681;28;20453;-58
2021/06/15 10:45:39;;;;;;;6.20;2.53;;;;;;;;;;5074812;28;20591;-59
2021/06/15 10:48:44;;;;;;;11.37;3.33;;;;;;;;;;5074432;28;20930;-60
2021/06/15 10:51:23;;;;;;;3.83;2.57;;;;;;;;;;4993822;28;21046;-59
2021/06/15 10:53:51;;;;;;;6.07;3.00;;;;;;;;;;4993864;28;20528;-58
2021/06/15 10:56:19;;;;;;;5.10;2.60;;;;;;;;;;5038307;28;20786;-59
2021/06/15 10:59:09;;;;;;;6.27;2.77;;;;;;;;;;5073848;28;20442;-59
2021/06/15 11:01:37;;;;;;;5.80;2.57;;;;;;;;;;5074591;28;20434;-60
2021/06/15 11:04:05;;;;;;;5.83;3.50;;;;;;;;;;5074446;28;20495;-59
2021/06/15 11:06:45;;;;;;;6.50;2.40;;;;;;;;;;5073955;28;20470;-59
2021/06/15 11:09:23;;;;;;;5.67;2.50;;;;;;;;;;5075243;28;20829;-59
2021/06/15 11:11:52;;;;;;;5.17;2.27;;;;;;;;;;5073584;28;20825;-58
2021/06/15 11:14:20;;;;;;;3.53;1.40;;;;;;;;;;5073609;28;20454;-58
2021/06/15 11:16:48;;;;;;;6.30;2.27;;;;;;;;;;5073443;28;20470;-59
2021/06/15 11:19:31;;;;;;;7.07;2.67;;;;;;;;;;5073500;28;20450;-60
2021/06/15 11:22:00;;;;;;;5.37;1.83;;;;;;;;;;5073936;28;20497;-58
2021/06/15 11:24:28;;;;;;;3.60;1.40;;;;;;;;;;5073692;28;20500;-59
2021/06/15 11:26:56;;;;;;;6.33;2.00;;;;;;;;;;5073355;28;20463;-59
2021/06/15 11:29:29;;;;;;;2.33;1.40;;;;;;;;;;5073377;28;20486;-59
2021/06/15 11:32:17;;;;;;;4.17;1.70;;;;;;;;;;5073192;28;20554;-58
2021/06/15 11:35:04;;;;;;;6.03;1.60;;;;;;;;;;5073172;28;20507;-59
2021/06/15 11:37:34;;;;;;;3.13;1.87;;;;;;;;;;5072729;28;20483;-59
2021/06/15 11:40:16;;;;;;;4.17;1.70;;;;;;;;;;5072674;28;20819;-59
2021/06/15 11:42:44;;;;;;;3.70;1.40;;;;;;;;;;5073353;28;20855;-58
2021/06/15 11:45:12;;;;;;;3.60;1.50;;;;;;;;;;5072797;28;20458;-59
2021/06/15 11:47:40;;;;;;;5.50;1.60;;;;;;;;;;5073255;28;20546;-59
2021/06/15 11:50:15;;;;;;;2.63;1.30;;;;;;;;;;5073660;28;20478;-59
2021/06/15 11:52:44;;;;;;;3.73;1.60;;;;;;;;;;5074229;28;20480;-59
2021/06/15 11:55:13;;;;;;;2.10;1.13;;;;;;;;;;5073120;28;20466;-58
2021/06/15 11:57:40;;;;;;;4.90;1.87;;;;;;;;;;5073259;28;20529;-60
2021/06/15 12:00:12;;;;;;;4.60;1.40;;;;;;;;;;5073161;28;20440;-60
2021/06/15 12:02:39;;;;;;;5.67;2.10;;;;;;;;;;5073165;28;20430;-59
2021/06/15 12:05:09;;;;;;;3.87;1.60;;;;;;;;;;5073323;28;20472;-59
2021/06/15 12:07:36;;;;;;;3.80;1.83;;;;;;;;;;5073374;28;20575;-59
2021/06/15 12:10:10;;;;;;;4.73;1.60;;;;;;;;;;5074272;28;20545;-59
2021/06/15 12:13:00;;;;;;;3.53;1.50;;;;;;;;;;5073550;28;20438;-59
2021/06/15 12:15:28;;;;;;;3.17;1.40;;;;;;;;;;5073616;28;20494;-59
2021/06/15 12:17:56;;;;;;;3.07;1.43;;;;;;;;;;5073386;28;20471;-58
2021/06/15 12:20:28;;;;;;;4.03;1.80;;;;;;;;;;5072947;28;20440;-59
2021/06/15 12:22:55;;;;;;;3.40;1.30;;;;;;;;;;5072707;28;20457;-58
2021/06/15 12:25:30;;;;;;;3.80;1.90;;;;;;;;;;5072880;28;20515;-58
2021/06/15 12:28:14;;;;;;;6.63;2.13;;;;;;;;;;5072959;28;20426;-59
2021/06/15 12:30:42;;;;;;;6.40;1.90;;;;;;;;;;5077895;28;20491;-59
2021/06/15 12:33:09;;;;;;;3.83;1.67;;;;;;;;;;5078776;28;20449;-58
2021/06/15 12:35:37;;;;;;;6.53;2.20;;;;;;;;;;5078918;28;20540;-59
2021/06/15 12:38:11;;;;;;;4.40;1.30;;;;;;;;;;5079285;28;20474;-58
2021/06/15 12:40:40;;;;;;;3.70;1.40;;;;;;;;;;5076437;28;20455;-59
2021/06/15 12:43:08;;;;;;;4.60;1.83;;;;;;;;;;5076459;28;20794;-59
2021/06/15 12:45:36;;;;;;;5.63;2.40;;;;;;;;;;5076267;28;20538;-57
2021/06/15 12:48:03;;;;;;;4.70;2.00;;;;;;;;;;5076892;28;20448;-59
2021/06/15 12:50:31;;;;;;;3.60;1.80;;;;;;;;;;5076254;28;20996;-59
2021/06/15 12:53:07;;;;;;;8.23;2.03;;;;;;;;;;5076029;28;20545;-59
2021/06/15 12:55:43;;;;;;;5.50;2.57;;;;;;;;;;5076473;28;21002;-59
2021/06/15 12:58:12;;;;;;;5.97;1.80;;;;;;;;;;5076588;28;20429;-59
2021/06/15 13:00:43;;;;;;;5.50;1.67;;;;;;;;;;5075632;28;20478;-59
2021/06/15 13:03:12;;;;;;;3.93;1.70;;;;;;;;;;5075642;28;20454;-59
2021/06/15 13:05:40;;;;;;;3.80;2.00;;;;;;;;;;5076059;28;20468;-59
2021/06/15 13:08:07;;;;;;;3.03;1.60;;;;;;;;;;5076757;28;20449;-59
2021/06/15 13:10:35;;;;;;;5.67;2.03;;;;;;;;;;5075839;28;20481;-59
2021/06/15 13:13:04;;;;;;;3.90;1.60;;;;;;;;;;5075692;28;20443;-59
2021/06/15 13:15:33;;;;;;;6.70;2.10;;;;;;;;;;5075373;28;20560;-57
2021/06/15 13:18:03;;;;;;;5.50;1.67;;;;;;;;;;5075520;28;20498;-59
2021/06/15 13:20:31;;;;;;;3.87;1.73;;;;;;;;;;5075078;28;20448;-57
2021/06/15 13:22:59;;;;;;;3.27;1.77;;;;;;;;;;5075352;28;20450;-59
2021/06/15 13:25:27;;;;;;;3.23;1.43;;;;;;;;;;5075107;28;20470;-59
2021/06/15 13:27:58;;;;;;;7.17;2.60;;;;;;;;;;5075746;28;20475;-59
2021/06/15 13:30:27;;;;;;;3.27;1.80;;;;;;;;;;5074857;28;20528;-59
2021/06/15 13:33:02;;;;;;;3.10;1.77;;;;;;;;;;5075149;28;20457;-58
2021/06/15 13:35:29;;;;;;;3.93;1.43;;;;;;;;;;5074871;28;20480;-59
2021/06/15 13:37:58;;;;;;;2.90;1.50;;;;;;;;;;5074863;28;20495;-58
2021/06/15 13:40:30;;;;;;;1.80;1.10;;;;;;;;;;5074353;28;20452;-57
2021/06/15 13:42:58;;;;;;;4.70;1.33;;;;;;;;;;5075164;28;20501;-59
2021/06/15 13:45:30;;;;;;;4.30;2.10;;;;;;;;;;5074835;28;20464;-58
2021/06/15 13:47:58;;;;;;;3.00;1.53;;;;;;;;;;5074589;28;20485;-59
2021/06/15 13:50:25;;;;;;;3.17;1.50;;;;;;;;;;5074921;28;20484;-57
2021/06/15 13:52:53;;;;;;;4.37;1.37;;;;;;;;;;5074849;28;20441;-59
2021/06/15 13:55:20;;;;;;;3.27;1.37;;;;;;;;;;5074766;28;20468;-60
2021/06/15 13:57:47;;;;;;;2.40;1.47;;;;;;;;;;5075157;28;20527;-59
2021/06/15 14:00:16;;;;;;;4.00;1.50;;;;;;;;;;5075047;28;20533;-59
2021/06/15 14:02:45;;;;;;;2.77;1.37;;;;;;;;;;5074739;28;20942;-58
2021/06/15 14:05:13;;;;;;;4.40;1.80;;;;;;;;;;5075546;28;20513;-58
2021/06/15 14:07:40;;;;;;;4.57;1.50;;;;;;;;;;5074996;28;20474;-59
2021/06/15 14:10:09;;;;;;;1.93;1.17;;;;;;;;;;5074547;28;20486;-59
2021/06/15 14:12:37;;;;;;;3.87;1.90;;;;;;;;;;5074268;28;20509;-59
2021/06/15 14:15:05;;;;;;;4.03;1.73;;;;;;;;;;5074952;28;20982;-59
2021/06/15 14:17:33;;;;;;;6.03;1.40;;;;;;;;;;5074382;28;20480;-59
2021/06/15 14:20:04;;;;;;;2.93;1.40;;;;;;;;;;5074858;28;20439;-59
2021/06/15 14:22:32;;;;;;;4.60;1.90;;;;;;;;;;5074684;28;20440;-59
2021/06/15 14:24:59;;;;;;;3.90;1.20;;;;;;;;;;5075143;28;20462;-60
2021/06/15 14:27:26;;;;;;;3.53;1.40;;;;;;;;;;5074814;28;20443;-59
2021/06/15 14:29:53;;;;;;;4.93;1.50;;;;;;;;;;5074320;28;20475;-59
2021/06/15 14:32:21;;;;;;;4.30;1.00;;;;;;;;;;5074448;28;20472;-58
2021/06/15 14:34:48;;;;;;;3.57;1.30;;;;;;;;;;5074228;28;20449;-59
2021/06/15 14:37:17;;;;;;;2.80;1.13;;;;;;;;;;5074864;28;20448;-59
2021/06/15 14:39:44;;;;;;;2.03;1.30;;;;;;;;;;5074198;28;20445;-59
2021/06/15 14:42:11;;;;;;;2.73;1.10;;;;;;;;;;5073995;28;20441;-59
2021/06/15 14:44:39;;;;;;;4.13;1.40;;;;;;;;;;5074174;28;20518;-59